Time;durP1;ratioP1;P1;durP2;ratioP2;P2;SDS_P1;SDS_P2;PMS_P1;PMS_P2;Temp;Humidity;BMP_temperature;BMP_pressure;BME280_temperature;BME280_humidity;BME280_pressure;Samples;Min_cycle;Max_cycle;Signal;HPM_P1;HPM_P2
2022/05/18 00:00:37;;;;;;;7.70;4.47;;;12.70;99.90;12.70;101287.00;;;;4999917;27;82783;-69
2022/05/18 00:03:08;;;;;;;4.47;4.07;;;12.70;99.90;12.70;101285.00;;;;5016853;27;82916;-69
2022/05/18 00:05:40;;;;;;;7.77;4.30;;;12.70;99.90;12.60;101280.00;;;;5015473;27;84196;-69
2022/05/18 00:08:08;;;;;;;4.17;2.87;;;12.60;99.90;12.60;101290.00;;;;5017177;27;83248;-69
2022/05/18 00:10:35;;;;;;;4.47;3.67;;;12.60;99.90;12.60;101297.00;;;;5007676;27;99863;-69
2022/05/18 00:13:01;;;;;;;4.20;3.43;;;12.60;99.90;12.60;101297.00;;;;4997346;27;98857;-69
2022/05/18 00:15:29;;;;;;;5.67;4.43;;;12.60;99.90;12.60;101299.00;;;;4981817;28;82709;-69
2022/05/18 00:17:55;;;;;;;4.20;3.30;;;12.60;99.90;12.60;101301.00;;;;4995500;27;109835;-69
2022/05/18 00:20:21;;;;;;;8.20;4.83;;;12.60;99.90;12.60;101300.00;;;;4995657;28;110657;-69
2022/05/18 00:22:51;;;;;;;4.93;4.07;;;12.60;99.90;12.50;101307.00;;;;4997334;27;82442;-69
2022/05/18 00:25:20;;;;;;;4.17;3.77;;;12.50;99.90;12.50;101302.00;;;;4997393;28;82744;-69
2022/05/18 00:27:46;;;;;;;3.63;3.30;;;12.50;99.90;12.50;101303.00;;;;4999257;27;101250;-69
2022/05/18 00:30:16;;;;;;;3.70;3.40;;;12.50;99.90;12.40;101314.00;;;;4981704;28;82606;-69
2022/05/18 00:32:42;;;;;;;4.00;3.57;;;12.40;99.90;12.40;101313.00;;;;5000646;28;82681;-69
2022/05/18 00:35:08;;;;;;;3.87;3.47;;;12.40;99.90;12.40;101317.00;;;;5012030;27;84371;-69
2022/05/18 00:37:34;;;;;;;5.67;3.73;;;12.40;99.90;12.40;101321.00;;;;5019911;27;100227;-69
2022/05/18 00:40:00;;;;;;;4.50;4.10;;;12.40;99.90;12.30;101315.00;;;;5001574;27;83186;-69
2022/05/18 00:42:28;;;;;;;4.13;3.70;;;12.30;99.90;12.30;101302.00;;;;5000373;27;82943;-69
2022/05/18 00:44:55;;;;;;;4.13;3.60;;;12.30;99.90;12.20;101304.00;;;;4981425;27;83962;-69
2022/05/18 00:47:20;;;;;;;3.50;3.30;;;12.20;99.90;12.20;101309.00;;;;5011512;27;84199;-69
2022/05/18 00:50:17;;;;;;;4.07;3.67;;;12.20;99.90;12.20;101320.00;;;;5000053;28;82455;-69
2022/05/18 00:53:03;;;;;;;6.23;4.10;;;12.20;99.90;12.10;101311.00;;;;4960067;27;82661;-69
2022/05/18 00:55:42;;;;;;;3.87;3.17;;;12.10;99.90;12.10;101311.00;;;;5000168;27;102698;-69
2022/05/18 00:58:14;;;;;;;3.80;3.47;;;12.10;99.90;12.10;101313.00;;;;5000985;27;93937;-69
2022/05/18 01:00:42;;;;;;;6.57;3.80;;;12.10;99.90;12.10;101320.00;;;;5018557;27;94128;-69
2022/05/18 01:03:16;;;;;;;4.30;3.70;;;12.10;99.90;12.00;101320.00;;;;5001203;27;81918;-69
2022/05/18 01:05:46;;;;;;;4.37;3.97;;;12.00;99.90;12.00;101322.00;;;;5012804;27;103964;-69
2022/05/18 01:08:21;;;;;;;3.77;3.47;;;12.00;99.90;12.00;101328.00;;;;4999087;27;82815;-69
2022/05/18 01:10:46;;;;;;;4.33;3.93;;;12.30;99.90;12.00;101327.00;;;;4980242;28;102008;-69
2022/05/18 01:13:12;;;;;;;4.67;3.97;;;12.00;99.90;12.00;101325.00;;;;5006788;27;82847;-69
2022/05/18 01:15:38;;;;;;;4.30;3.73;;;12.00;99.90;12.00;101338.00;;;;5016628;27;107221;-70
2022/05/18 01:18:04;;;;;;;4.63;3.50;;;12.00;99.90;12.00;101340.00;;;;5016135;27;111788;-69
2022/05/18 01:20:34;;;;;;;4.43;3.47;;;11.90;99.90;12.00;101344.00;;;;4981352;28;82998;-69
2022/05/18 01:23:06;;;;;;;4.03;3.73;;;11.90;99.90;11.90;101347.00;;;;4981800;27;83273;-69
2022/05/18 01:26:10;;;;;;;5.87;3.80;;;11.90;99.90;11.90;101355.00;;;;5019520;27;97731;-69
2022/05/18 01:28:40;;;;;;;4.90;4.40;;;11.90;99.90;11.90;101361.00;;;;5000389;27;84087;-69
2022/05/18 01:31:07;;;;;;;6.43;4.37;;;11.90;99.90;11.90;101375.00;;;;5000355;27;84300;-69
2022/05/18 01:33:37;;;;;;;5.97;4.40;;;11.90;99.90;11.80;101371.00;;;;5019010;27;82594;-69
2022/05/18 01:36:04;;;;;;;4.97;4.47;;;11.80;99.90;11.90;101372.00;;;;5018299;27;90718;-68
2022/05/18 01:38:31;;;;;;;5.87;4.70;;;11.80;99.90;12.00;101386.00;;;;5015462;27;84959;-69
2022/05/18 01:41:16;;;;;;;8.13;4.83;;;11.90;99.90;12.10;101387.00;;;;4999327;27;82822;-69
2022/05/18 01:43:52;;;;;;;6.67;5.47;;;12.00;99.90;12.20;101393.00;;;;4980734;28;82712;-68
2022/05/18 01:46:20;;;;;;;6.93;4.73;;;12.10;99.90;12.30;101387.00;;;;4980227;28;83171;-68
2022/05/18 01:48:51;;;;;;;6.03;5.47;;;12.20;99.90;12.40;101387.00;;;;5006996;27;82762;-68
2022/05/18 01:51:47;;;;;;;6.87;4.80;;;12.30;99.90;12.40;101392.00;;;;5019906;27;82692;-68
2022/05/18 01:54:13;;;;;;;6.10;5.50;;;12.40;99.90;12.50;101400.00;;;;4988737;28;82011;-68
2022/05/18 01:56:39;;;;;;;5.97;5.47;;;12.40;99.90;12.60;101399.00;;;;4980304;28;101282;-68
2022/05/18 01:59:05;;;;;;;6.93;5.47;;;12.50;99.90;12.60;101408.00;;;;4998132;27;113902;-69
2022/05/18 02:01:31;;;;;;;4.60;4.07;;;12.80;99.90;12.70;101396.00;;;;4998678;27;83613;-68
2022/05/18 02:03:57;;;;;;;8.77;6.33;;;12.70;99.90;12.70;101408.00;;;;4999273;28;83371;-68
2022/05/18 02:06:23;;;;;;;6.70;5.33;;;12.70;99.90;12.80;101409.00;;;;4979316;28;112811;-68
2022/05/18 02:08:49;;;;;;;5.90;5.17;;;12.70;99.90;12.80;101408.00;;;;5005168;27;82596;-69
2022/05/18 02:11:18;;;;;;;7.67;5.07;;;12.70;99.90;12.80;101419.00;;;;5019133;27;82620;-67
2022/05/18 02:13:51;;;;;;;7.00;5.67;;;12.70;99.90;12.70;101411.00;;;;4992052;28;82791;-69
2022/05/18 02:16:19;;;;;;;6.37;5.23;;;12.70;99.90;12.70;101415.00;;;;4999417;28;83004;-69
2022/05/18 02:19:04;;;;;;;8.53;4.83;;;12.70;99.90;12.60;101414.00;;;;4986816;27;84507;-68
2022/05/18 02:21:30;;;;;;;7.10;5.03;;;12.60;99.90;12.60;101417.00;;;;5017459;27;110085;-68
2022/05/18 02:23:55;;;;;;;6.77;5.17;;;12.60;99.90;12.50;101415.00;;;;5017435;27;108174;-68
2022/05/18 02:26:21;;;;;;;6.97;5.87;;;12.50;99.90;12.50;101416.00;;;;5016680;27;114231;-67
2022/05/18 02:28:47;;;;;;;5.47;4.80;;;12.50;99.90;12.40;101411.00;;;;5011664;27;87615;-68
2022/05/18 02:31:14;;;;;;;6.83;5.97;;;12.40;99.90;12.30;101412.00;;;;4998653;27;110679;-68
2022/05/18 02:33:41;;;;;;;6.10;5.23;;;12.30;99.90;12.30;101408.00;;;;4997404;28;109640;-68
2022/05/18 02:36:08;;;;;;;7.67;5.47;;;12.30;99.90;12.20;101416.00;;;;4996870;27;112409;-68
2022/05/18 02:38:35;;;;;;;5.83;5.23;;;12.20;99.90;12.20;101416.00;;;;5000783;27;82606;-68
2022/05/18 02:41:01;;;;;;;8.73;5.63;;;12.20;99.90;12.20;101423.00;;;;5017273;27;106743;-68
2022/05/18 02:43:28;;;;;;;6.67;5.47;;;12.20;99.90;12.20;101434.00;;;;5018330;27;81944;-69
2022/05/18 02:46:03;;;;;;;7.93;5.30;;;12.20;99.90;12.20;101424.00;;;;5017150;27;83639;-69
2022/05/18 02:48:29;;;;;;;9.33;5.67;;;12.20;99.90;12.20;101423.00;;;;4984055;27;83210;-69
2022/05/18 02:50:55;;;;;;;7.23;5.00;;;12.20;99.90;12.30;101435.00;;;;4999140;27;83601;-68
2022/05/18 02:53:21;;;;;;;11.00;5.07;;;12.20;99.90;12.30;101443.00;;;;5003592;27;82902;-69
2022/05/18 02:56:05;;;;;;;5.80;5.17;;;12.20;99.90;12.30;101444.00;;;;5017632;27;105978;-69
2022/05/18 02:58:37;;;;;;;6.87;5.43;;;12.30;99.90;12.30;101451.00;;;;4998152;27;82667;-69
2022/05/18 03:01:06;;;;;;;7.10;5.33;;;12.30;99.90;12.40;101451.00;;;;4982648;27;82807;-67
2022/05/18 03:03:32;;;;;;;7.27;6.57;;;12.30;99.90;12.40;101450.00;;;;5017696;27;82713;-68
2022/05/18 03:05:57;;;;;;;6.27;5.47;;;12.30;99.90;12.40;101457.00;;;;4998286;27;113499;-67
2022/05/18 03:08:23;;;;;;;6.23;5.17;;;12.40;99.90;12.50;101466.00;;;;5014589;27;111921;-67
2022/05/18 03:10:49;;;;;;;8.23;6.10;;;12.40;99.90;12.50;101460.00;;;;4998041;27;109853;-67
2022/05/18 03:13:14;;;;;;;5.47;4.97;;;12.20;99.90;12.50;101457.00;;;;5017593;27;94866;-68
2022/05/18 03:15:40;;;;;;;7.37;5.53;;;12.50;99.90;12.50;101456.00;;;;5016689;27;112421;-67
2022/05/18 03:18:06;;;;;;;5.10;4.60;;;12.50;99.90;12.50;101454.00;;;;5016413;27;112195;-69
2022/05/18 03:23:33;;;;;;;7.37;6.27;;;12.40;99.90;12.30;101455.00;;;;4996809;27;82731;-68
2022/05/18 03:26:10;;;;;;;6.77;5.67;;;12.30;99.90;12.20;101468.00;;;;4997129;28;83149;-67
2022/05/18 03:28:37;;;;;;;6.33;5.77;;;12.20;99.90;12.10;101460.00;;;;4980415;27;85282;-69
2022/05/18 03:31:04;;;;;;;5.00;4.50;;;12.10;99.90;12.00;101463.00;;;;5014752;27;82566;-67
2022/05/18 03:33:30;;;;;;;4.60;4.20;;;12.00;99.90;11.90;101466.00;;;;4996564;28;109628;-68
2022/05/18 03:35:56;;;;;;;5.50;4.17;;;11.90;99.90;11.80;101464.00;;;;5008285;27;84601;-68
2022/05/18 03:38:23;;;;;;;6.30;4.87;;;11.80;99.90;11.70;101460.00;;;;5007348;27;111871;-67
2022/05/18 03:40:48;;;;;;;5.73;5.17;;;11.80;99.90;11.70;101456.00;;;;5010060;27;110009;-68
2022/05/18 03:43:14;;;;;;;4.67;4.27;;;11.70;99.90;11.60;101459.00;;;;5017561;27;82994;-67
2022/05/18 03:45:41;;;;;;;5.50;5.10;;;11.60;99.90;11.60;101463.00;;;;5017507;27;87811;-68
2022/05/18 03:48:08;;;;;;;5.73;5.17;;;11.60;99.90;11.50;101465.00;;;;5015119;27;82835;-69
2022/05/18 03:50:37;;;;;;;5.83;4.70;;;11.50;99.90;11.50;101470.00;;;;5000385;27;82731;-68
2022/05/18 03:53:03;;;;;;;5.43;4.70;;;11.50;99.90;11.40;101473.00;;;;5000516;27;82522;-68
2022/05/18 03:55:30;;;;;;;5.73;5.20;;;11.50;99.90;11.40;101475.00;;;;5016793;27;102266;-68
2022/05/18 03:57:56;;;;;;;4.80;4.40;;;11.40;99.90;11.40;101472.00;;;;5016738;27;83702;-68
2022/05/18 04:00:22;;;;;;;3.97;3.63;;;11.40;99.90;11.40;101468.00;;;;5015945;27;91382;-68
2022/05/18 04:02:47;;;;;;;7.10;4.60;;;11.40;99.90;11.40;101477.00;;;;5020116;27;103153;-68
2022/05/18 04:05:16;;;;;;;4.93;4.33;;;11.40;99.90;11.40;101478.00;;;;5019202;27;111941;-68
2022/05/18 04:07:42;;;;;;;5.50;4.93;;;11.40;99.90;11.40;101473.00;;;;5001742;27;83725;-68
2022/05/18 04:10:09;;;;;;;4.80;4.03;;;11.40;99.90;11.40;101478.00;;;;5007138;27;82803;-68
2022/05/18 04:12:35;;;;;;;4.53;3.90;;;11.40;99.90;11.40;101484.00;;;;4999819;27;99691;-69
2022/05/18 04:15:03;;;;;;;4.23;2.87;;;11.40;99.90;11.40;101483.00;;;;4999940;27;111672;-68
2022/05/18 04:17:29;;;;;;;4.63;4.23;;;11.40;99.90;11.50;101487.00;;;;5000053;27;105886;-67
2022/05/18 04:19:55;;;;;;;4.43;3.17;;;11.50;99.90;11.50;101487.00;;;;5000435;28;82572;-69
2022/05/18 04:22:21;;;;;;;4.80;3.50;;;11.50;99.90;11.50;101488.00;;;;5001904;27;82291;-67
2022/05/18 04:24:47;;;;;;;4.57;2.97;;;11.50;99.90;11.50;101496.00;;;;4999560;28;103754;-68
2022/05/18 04:27:12;;;;;;;3.77;3.37;;;11.50;99.90;11.60;101488.00;;;;4984032;27;110509;-68
2022/05/18 04:29:38;;;;;;;4.70;2.60;;;11.50;99.90;11.60;101494.00;;;;4984182;27;108847;-68
2022/05/18 04:32:05;;;;;;;4.07;2.93;;;11.50;99.90;11.60;101491.00;;;;5002686;27;82794;-68
2022/05/18 04:34:31;;;;;;;3.33;2.30;;;11.60;99.90;11.70;101492.00;;;;4996954;27;101356;-68
2022/05/18 04:36:57;;;;;;;4.47;3.07;;;11.60;99.90;11.70;101496.00;;;;5005055;27;84018;-68
2022/05/18 04:39:23;;;;;;;6.43;2.73;;;11.60;99.90;11.80;101498.00;;;;4997438;27;110339;-68
2022/05/18 04:41:48;;;;;;;3.10;2.80;;;11.70;99.90;11.80;101499.00;;;;5015910;27;94158;-68
2022/05/18 04:44:14;;;;;;;3.47;2.93;;;11.80;99.90;11.90;101516.00;;;;5007811;27;112431;-68
2022/05/18 04:46:40;;;;;;;3.03;2.53;;;11.90;99.90;12.00;101511.00;;;;5016328;27;111754;-68
2022/05/18 04:49:07;;;;;;;3.60;2.67;;;11.90;99.90;12.10;101510.00;;;;5014167;27;111112;-68
2022/05/18 04:51:33;;;;;;;4.30;3.13;;;12.00;99.90;12.20;101511.00;;;;5016935;27;82765;-67
2022/05/18 04:53:59;;;;;;;3.13;2.83;;;12.10;99.90;12.40;101516.00;;;;5006650;27;83697;-68
2022/05/18 04:56:25;;;;;;;4.50;2.70;;;12.30;99.90;12.50;101515.00;;;;5015672;27;111433;-68
2022/05/18 04:58:51;;;;;;;2.27;2.07;;;12.40;99.90;12.60;101520.00;;;;5013915;27;82663;-68
2022/05/18 05:01:17;;;;;;;2.67;2.47;;;12.50;99.90;12.80;101511.00;;;;5016444;27;82717;-67
2022/05/18 05:03:43;;;;;;;3.53;3.07;;;12.60;99.90;12.90;101509.00;;;;5009643;27;83306;-68
2022/05/18 05:06:15;;;;;;;4.13;2.23;;;12.70;99.90;12.90;101521.00;;;;4997157;27;111218;-68
2022/05/18 05:08:41;;;;;;;2.93;2.07;;;12.80;99.90;13.00;101526.00;;;;5007834;27;82615;-69
2022/05/18 05:11:07;;;;;;;4.63;2.40;;;12.90;99.90;13.00;101533.00;;;;5000079;27;109759;-68
2022/05/18 05:13:34;;;;;;;2.27;2.07;;;12.90;99.90;13.10;101526.00;;;;5006559;27;98896;-69
2022/05/18 05:16:04;;;;;;;3.57;2.30;;;13.00;99.90;13.20;101510.00;;;;4999563;27;112490;-67
2022/05/18 05:18:30;;;;;;;3.13;2.17;;;13.10;99.90;13.30;101526.00;;;;4999324;27;83762;-68
2022/05/18 05:20:55;;;;;;;2.53;1.57;;;13.20;99.90;13.40;101532.00;;;;4999004;28;102080;-68
2022/05/18 05:23:24;;;;;;;2.57;1.93;;;13.30;99.90;13.60;101522.00;;;;5007698;27;112389;-67
2022/05/18 05:25:54;;;;;;;4.83;2.23;;;13.40;99.90;13.70;101522.00;;;;5019445;27;82833;-68
2022/05/18 05:28:20;;;;;;;1.63;1.53;;;13.50;99.90;13.80;101521.00;;;;4995988;28;82736;-67
2022/05/18 05:30:46;;;;;;;3.27;1.83;;;13.70;99.90;14.00;101533.00;;;;4998806;28;102139;-67
2022/05/18 05:33:12;;;;;;;2.43;2.20;;;13.80;99.90;14.10;101525.00;;;;5005083;27;89173;-67
2022/05/18 05:35:42;;;;;;;2.27;2.07;;;13.90;99.90;14.20;101522.00;;;;5006819;27;105924;-67
2022/05/18 05:38:09;;;;;;;4.30;2.10;;;14.00;99.90;14.20;101529.00;;;;5014367;27;87902;-69
2022/05/18 05:40:36;;;;;;;2.83;1.77;;;14.10;99.90;14.30;101537.00;;;;4980033;28;88272;-68
2022/05/18 05:43:07;;;;;;;2.00;1.80;;;14.10;99.90;14.40;101539.00;;;;5002143;27;99641;-68
2022/05/18 05:45:32;;;;;;;2.23;1.97;;;14.20;99.90;14.50;101537.00;;;;5015533;27;111337;-69
2022/05/18 05:47:58;;;;;;;1.80;1.40;;;14.40;99.90;14.70;101543.00;;;;5014352;27;106505;-69
2022/05/18 05:50:27;;;;;;;1.60;1.47;;;14.50;99.90;14.80;101535.00;;;;4998006;27;87946;-68
2022/05/18 05:52:53;;;;;;;2.13;1.80;;;14.60;99.90;15.00;101545.00;;;;5014227;27;116801;-68
2022/05/18 05:55:20;;;;;;;2.17;1.83;;;14.80;99.90;15.20;101545.00;;;;5015813;27;117432;-69
2022/05/18 05:57:45;;;;;;;1.80;1.25;;;15.00;99.90;15.40;101547.00;;;;5015609;27;107304;-69
2022/05/18 06:00:12;;;;;;;2.75;1.75;;;15.20;99.90;15.50;101544.00;;;;4997005;27;108729;-68
2022/05/18 06:02:38;;;;;;;2.10;1.42;;;15.40;99.90;15.70;101543.00;;;;4997921;27;108045;-69
2022/05/18 06:05:04;;;;;;;2.50;1.98;;;15.50;99.90;15.80;101554.00;;;;5016797;27;91169;-69
2022/05/18 06:07:34;;;;;;;2.25;1.60;;;15.60;99.90;15.90;101553.00;;;;5015772;27;100116;-68
2022/05/18 06:10:00;;;;;;;7.00;1.90;;;15.70;99.90;16.10;101555.00;;;;5014663;27;87917;-69
2022/05/18 06:12:27;;;;;;;3.92;1.35;;;15.90;99.90;16.20;101557.00;;;;5013010;27;117579;-68
2022/05/18 06:14:53;;;;;;;2.03;1.92;;;16.00;99.90;16.30;101561.00;;;;5016345;27;87861;-68
2022/05/18 06:17:19;;;;;;;1.90;1.77;;;16.10;99.90;16.40;101565.00;;;;5013887;27;110749;-69
2022/05/18 06:19:45;;;;;;;1.90;1.42;;;16.20;99.90;16.60;101571.00;;;;5016335;27;87695;-69
2022/05/18 06:22:10;;;;;;;1.67;1.55;;;16.40;99.90;16.60;101569.00;;;;5014807;27;116862;-68
2022/05/18 06:24:37;;;;;;;2.75;1.50;;;16.40;99.90;16.70;101567.00;;;;5013550;27;116678;-69
2022/05/18 06:27:03;;;;;;;1.95;1.30;;;16.50;99.90;16.80;101564.00;;;;4998205;27;88059;-68
2022/05/18 06:29:29;;;;;;;1.92;1.55;;;16.60;99.90;16.80;101564.00;;;;5009652;27;98662;-68
2022/05/18 06:31:56;;;;;;;2.20;1.65;;;16.70;99.90;16.90;101572.00;;;;5014405;27;118853;-69
2022/05/18 06:34:22;;;;;;;1.42;1.33;;;16.70;99.90;17.10;101575.00;;;;4999467;27;89455;-69
2022/05/18 06:36:51;;;;;;;2.15;1.35;;;16.90;99.90;17.30;101574.00;;;;5000919;27;87590;-69
2022/05/18 06:39:18;;;;;;;1.92;1.63;;;17.00;99.90;17.40;101577.00;;;;4998704;27;108124;-69
2022/05/18 06:41:53;;;;;;;2.72;1.27;;;17.20;99.70;17.60;101585.00;;;;5001350;27;88159;-70
2022/05/18 06:44:19;;;;;;;5.20;1.67;;;17.40;99.00;17.70;101594.00;;;;5009619;27;115062;-69
2022/05/18 06:46:47;;;;;;;1.60;1.50;;;17.50;98.20;17.80;101595.00;;;;5015968;27;87734;-67
2022/05/18 06:49:13;;;;;;;3.30;2.20;;;17.60;97.30;18.00;101601.00;;;;5015985;27;87061;-67
2022/05/18 06:51:41;;;;;;;1.95;1.65;;;17.70;97.70;18.20;101602.00;;;;5004303;27;87844;-67
2022/05/18 06:54:07;;;;;;;2.03;1.80;;;17.90;97.20;18.40;101590.00;;;;4988958;27;87780;-67
2022/05/18 06:56:40;;;;;;;2.35;2.13;;;18.10;97.30;18.70;101596.00;;;;5009521;27;111494;-68
2022/05/18 06:59:07;;;;;;;1.60;1.50;;;18.40;96.50;18.90;101600.00;;;;5015494;27;87679;-68
2022/05/18 07:01:33;;;;;;;1.65;1.30;;;18.60;94.80;19.10;101599.00;;;;4996492;27;88066;-67
2022/05/18 07:04:36;;;;;;;2.20;1.55;;;18.80;92.50;19.20;101600.00;;;;5002319;27;110698;-68
2022/05/18 07:07:02;;;;;;;2.50;1.83;;;19.00;93.00;19.50;101597.00;;;;5004105;27;109624;-67
2022/05/18 07:09:29;;;;;;;2.58;1.33;;;19.20;93.50;19.70;101596.00;;;;4993935;28;101339;-67
2022/05/18 07:11:55;;;;;;;2.00;1.90;;;19.40;92.20;19.90;101600.00;;;;4994283;27;114432;-66
2022/05/18 07:14:26;;;;;;;1.63;1.38;;;19.60;91.30;20.10;101603.00;;;;5009216;27;91895;-66
2022/05/18 07:16:53;;;;;;;2.25;1.60;;;19.80;89.50;20.20;101599.00;;;;5015862;27;87702;-68
2022/05/18 07:19:20;;;;;;;3.80;1.42;;;20.00;89.10;20.50;101607.00;;;;5015370;27;87789;-68
2022/05/18 07:21:47;;;;;;;2.10;1.73;;;20.20;89.80;20.70;101608.00;;;;4994790;27;90095;-68
2022/05/18 07:24:14;;;;;;;2.67;1.80;;;20.40;87.20;20.80;101614.00;;;;4994855;28;88008;-67
2022/05/18 07:26:41;;;;;;;1.67;1.50;;;20.60;81.80;20.80;101606.00;;;;5000044;27;87992;-66
2022/05/18 07:29:08;;;;;;;2.03;1.40;;;20.60;82.90;21.00;101618.00;;;;4995151;28;87642;-67
2022/05/18 07:34:21;;;;;;;3.65;1.45;;;21.00;81.20;21.40;101620.00;;;;4994878;28;87665;-70
2022/05/18 07:36:55;;;;;;;5.70;1.83;;;21.20;81.30;21.70;101621.00;;;;5008834;27;87828;-70
2022/05/18 07:39:21;;;;;;;2.33;1.60;;;21.40;78.90;21.90;101619.00;;;;4995512;27;87003;-70
2022/05/18 07:41:47;;;;;;;1.92;1.83;;;21.60;79.20;22.10;101626.00;;;;4995462;27;89090;-69
2022/05/18 07:44:13;;;;;;;1.90;1.52;;;21.80;78.80;22.30;101624.00;;;;4975619;28;89549;-68
2022/05/18 07:46:39;;;;;;;3.67;1.48;;;22.00;77.30;22.60;101620.00;;;;4994960;27;88565;-69
2022/05/18 07:49:05;;;;;;;2.67;1.20;;;22.30;75.00;22.70;101621.00;;;;4994006;28;109215;-69
2022/05/18 07:51:32;;;;;;;7.57;1.92;;;22.40;70.00;22.70;101614.00;;;;4998825;27;104333;-69
2022/05/18 07:53:58;;;;;;;2.33;1.98;;;22.50;68.90;22.60;101612.00;;;;5004876;27;88559;-69
2022/05/18 07:56:25;;;;;;;3.10;1.45;;;22.40;69.40;22.80;101620.00;;;;5012725;27;87816;-69
2022/05/18 07:58:51;;;;;;;2.40;1.73;;;22.50;71.30;23.00;101621.00;;;;5014800;27;96836;-69
2022/05/18 08:01:16;;;;;;;5.03;2.05;;;22.70;69.60;23.20;101621.00;;;;5012416;27;96146;-69
2022/05/18 08:03:57;;;;;;;3.00;2.03;;;22.90;69.40;23.40;101623.00;;;;4995123;27;110061;-70
2022/05/18 08:06:23;;;;;;;4.18;2.00;;;23.10;68.30;23.60;101613.00;;;;4986121;27;88182;-72
2022/05/18 08:08:49;;;;;;;2.90;1.90;;;23.30;68.00;23.80;101620.00;;;;5006258;27;109865;-73
2022/05/18 08:16:47;;;;;;;2.65;1.20;;;23.80;64.00;24.20;101608.00;;;;5003361;27;87573;-73
2022/05/18 08:19:15;;;;;;;2.25;1.17;;;24.00;63.80;24.40;101613.00;;;;5014555;27;87862;-74
2022/05/18 08:21:41;;;;;;;3.58;1.88;;;24.10;63.50;24.60;101606.00;;;;5000243;27;90401;-73
2022/05/18 08:24:07;;;;;;;1.50;1.27;;;24.20;60.90;24.60;101613.00;;;;5009415;27;87936;-72
2022/05/18 08:26:34;;;;;;;3.05;1.80;;;24.30;59.50;24.50;101606.00;;;;5012845;27;87991;-73
2022/05/18 08:29:02;;;;;;;16.55;2.05;;;24.30;60.40;24.70;101607.00;;;;5014333;27;87169;-72
2022/05/18 08:31:28;;;;;;;2.22;1.73;;;24.40;60.70;24.80;101613.00;;;;5012969;27;110089;-73
2022/05/18 08:33:53;;;;;;;1.60;1.50;;;24.50;59.70;24.90;101617.00;;;;5013075;27;117214;-72
2022/05/18 08:36:19;;;;;;;1.98;1.83;;;24.60;59.80;25.10;101604.00;;;;5013983;27;88717;-72
2022/05/18 08:38:45;;;;;;;2.00;1.60;;;24.80;58.50;25.20;101603.00;;;;5008243;27;87782;-72
2022/05/18 08:41:21;;;;;;;2.25;1.58;;;24.80;58.60;25.40;101609.00;;;;4992711;27;117145;-72
2022/05/18 08:43:55;;;;;;;4.03;1.88;;;25.00;56.70;25.40;101606.00;;;;4974766;28;87664;-74
2022/05/18 08:46:58;;;;;;;2.35;1.60;;;25.00;57.20;25.50;101615.00;;;;5006681;27;87963;-73
2022/05/18 08:49:53;;;;;;;4.30;2.33;;;25.20;57.60;25.70;101615.00;;;;5015725;27;87836;-74
2022/05/18 08:53:09;;;;;;;1.40;1.30;;;25.40;56.00;25.70;101606.00;;;;4998050;27;89805;-74
2022/05/18 08:56:24;;;;;;;2.33;1.38;;;25.40;56.00;25.80;101606.00;;;;5016471;27;87194;-74
2022/05/18 08:58:54;;;;;;;1.60;1.50;;;25.50;55.10;25.90;101606.00;;;;4979525;27;87936;-73
2022/05/18 09:01:40;;;;;;;4.13;1.60;;;25.50;55.40;26.00;101604.00;;;;4997891;27;108655;-72
2022/05/18 09:04:21;;;;;;;2.35;1.55;;;25.60;55.10;26.10;101601.00;;;;4997837;27;89141;-72
2022/05/18 09:06:50;;;;;;;2.50;2.00;;;25.70;55.80;26.30;101602.00;;;;5003462;27;88028;-73
2022/05/18 09:12:19;;;;;;;2.28;1.65;;;25.90;52.70;26.30;101607.00;;;;4978396;28;87780;-74
2022/05/18 09:14:46;;;;;;;2.85;1.77;;;25.90;51.80;26.20;101595.00;;;;4996283;28;117764;-73
2022/05/18 09:17:54;;;;;;;1.83;1.25;;;26.00;52.40;26.10;101602.00;;;;4995250;27;117919;-73
2022/05/18 09:20:46;;;;;;;3.65;2.22;;;25.80;51.10;26.00;101597.00;;;;4980163;28;88175;-73
2022/05/18 09:23:36;;;;;;;3.97;1.25;;;25.70;51.90;25.70;101597.00;;;;4977971;28;87199;-73
2022/05/18 09:26:33;;;;;;;3.90;1.85;;;25.50;51.50;25.40;101597.00;;;;4977635;27;90124;-74
2022/05/18 09:29:19;;;;;;;2.03;1.83;;;25.20;52.30;25.50;101600.00;;;;4997833;27;87777;-75
2022/05/18 09:32:23;;;;;;;1.30;1.20;;;25.20;53.40;25.70;101591.00;;;;4994935;27;102664;-74
2022/05/18 09:35:20;;;;;;;1.90;1.77;;;25.40;51.40;26.00;101602.00;;;;4998990;27;87732;-73
2022/05/18 09:38:02;;;;;;;1.88;1.70;;;25.50;51.50;26.00;101597.00;;;;5007666;27;87876;-73
2022/05/18 09:40:34;;;;;;;2.72;1.50;;;25.60;49.20;25.90;101598.00;;;;4978865;27;87851;-74
2022/05/18 09:43:47;;;;;;;2.70;1.77;;;25.60;47.70;26.00;101596.00;;;;4977568;28;88015;-75
2022/05/18 09:46:29;;;;;;;1.77;1.60;;;25.60;48.70;25.80;101597.00;;;;4978012;28;87990;-75
2022/05/18 09:49:20;;;;;;;1.55;1.30;;;25.60;47.70;25.90;101594.00;;;;4961049;28;90288;-75
2022/05/18 09:51:47;;;;;;;10.25;2.65;;;25.50;48.70;26.00;101595.00;;;;4979928;28;87989;-74
2022/05/18 09:54:13;;;;;;;2.33;1.90;;;25.60;49.30;26.10;101597.00;;;;4977851;28;110328;-75
2022/05/18 09:56:56;;;;;;;3.15;1.67;;;25.70;49.90;26.40;101594.00;;;;4979588;27;87676;-75
2022/05/18 09:59:30;;;;;;;2.45;1.60;;;25.90;49.20;26.50;101590.00;;;;4996151;27;88413;-75
2022/05/18 10:07:34;;;;;;;2.13;1.92;;;26.40;48.60;26.80;101591.00;;;;4997402;27;87861;-73
2022/05/18 10:10:12;;;;;;;3.60;1.40;;;26.40;48.50;26.60;101594.00;;;;5014254;27;88768;-73
2022/05/18 10:12:48;;;;;;;5.82;2.17;;;26.30;48.00;26.60;101589.00;;;;5006163;27;88636;-76
2022/05/18 10:15:25;;;;;;;2.03;1.70;;;26.20;47.40;26.60;101583.00;;;;5015610;27;87725;-75
2022/05/18 10:17:56;;;;;;;1.52;1.42;;;26.20;47.40;26.80;101583.00;;;;5002492;27;109430;-75
2022/05/18 10:20:33;;;;;;;1.40;1.20;;;26.20;47.20;27.00;101578.00;;;;4976983;28;88781;-76
2022/05/18 10:23:01;;;;;;;20.33;1.70;;;26.40;47.60;27.30;101582.00;;;;5004369;27;87919;-75
2022/05/18 10:25:39;;;;;;;2.88;2.00;;;26.60;47.30;27.30;101587.00;;;;5012961;27;88836;-75
2022/05/18 10:28:25;;;;;;;1.85;1.75;;;26.80;47.00;27.00;101580.00;;;;4971037;27;88384;-74
2022/05/18 10:31:04;;;;;;;7.45;2.08;;;26.70;46.40;27.10;101581.00;;;;4976056;28;110302;-74
2022/05/18 10:33:41;;;;;;;2.60;1.52;;;26.60;47.10;27.10;101580.00;;;;4992525;28;88788;-74
2022/05/18 10:36:14;;;;;;;3.88;2.15;;;26.60;46.30;27.20;101578.00;;;;4993957;28;87847;-74
2022/05/18 10:38:54;;;;;;;5.28;2.38;;;26.70;46.40;27.00;101586.00;;;;4995653;28;88041;-76
2022/05/18 10:41:27;;;;;;;3.20;1.98;;;26.70;46.00;27.00;101585.00;;;;4977413;28;88420;-74
2022/05/18 10:44:20;;;;;;;1.80;1.70;;;26.50;46.20;26.70;101585.00;;;;4976983;28;88008;-76
2022/05/18 10:46:48;;;;;;;2.50;1.90;;;26.40;46.40;26.70;101567.00;;;;4976900;28;87897;-74
2022/05/18 10:49:35;;;;;;;4.95;1.70;;;26.30;47.00;26.70;101572.00;;;;4975996;28;99696;-77
2022/05/18 10:52:28;;;;;;;4.78;1.65;;;26.30;47.30;26.80;101561.00;;;;4975515;28;108283;-74
2022/05/18 10:55:06;;;;;;;2.67;1.77;;;26.30;47.60;27.20;101580.00;;;;4993938;27;88144;-76
2022/05/18 10:57:39;;;;;;;2.40;1.85;;;26.60;46.50;27.40;101574.00;;;;4996393;27;87681;-75
2022/05/18 11:00:15;;;;;;;4.45;2.25;;;26.80;46.70;27.40;101563.00;;;;4987786;28;88159;-75
2022/05/18 11:03:14;;;;;;;2.15;1.95;;;26.80;46.00;27.30;101562.00;;;;4985154;27;109139;-73
2022/05/18 11:06:09;;;;;;;3.58;1.45;;;26.90;46.30;26.90;101569.00;;;;4978704;27;109127;-74
2022/05/18 11:08:35;;;;;;;2.90;2.13;;;27.30;46.00;26.30;101570.00;;;;4991194;27;104619;-75
2022/05/18 11:11:35;;;;;;;2.15;1.60;;;26.20;45.80;25.90;101561.00;;;;4979574;27;93330;-73
2022/05/18 11:14:30;;;;;;;2.45;2.08;;;25.80;46.60;26.00;101562.00;;;;4975510;28;89032;-73
2022/05/18 11:17:29;;;;;;;5.93;1.45;;;25.60;47.40;26.20;101561.00;;;;4988811;28;89889;-74
2022/05/18 11:20:26;;;;;;;2.42;1.45;;;25.80;47.60;26.30;101559.00;;;;4989292;27;88777;-73
2022/05/18 11:23:00;;;;;;;3.72;1.60;;;25.90;47.20;26.40;101549.00;;;;4975716;28;88037;-74